Time;durP1;ratioP1;P1;durP2;ratioP2;P2;SDS_P1;SDS_P2;PMS_P1;PMS_P2;Temp;Humidity;BMP_temperature;BMP_pressure;BME280_temperature;BME280_humidity;BME280_pressure;Samples;Min_cycle;Max_cycle;Signal;HPM_P1;HPM_P2
2022/04/11 00:02:08;;;;;;;4.87;3.00;;;;;;;2.89;79.32;98966.66;5111565;28;20687;-60
2022/04/11 00:04:35;;;;;;;4.83;2.60;;;;;;;2.82;80.38;98957.63;5110876;27;20189;-59
2022/04/11 00:07:02;;;;;;;4.03;2.60;;;;;;;2.76;80.26;98958.84;5111098;28;20178;-59
2022/04/11 00:09:29;;;;;;;6.20;2.93;;;;;;;2.83;78.78;98950.72;5111169;28;20664;-59
2022/04/11 00:11:57;;;;;;;5.57;2.87;;;;;;;2.92;78.78;98950.19;5111055;28;20185;-60
2022/04/11 00:14:24;;;;;;;7.03;2.97;;;;;;;2.97;79.08;98948.16;5110573;28;20205;-60
2022/04/11 00:16:51;;;;;;;5.17;2.60;;;;;;;2.82;78.77;98947.31;5111070;28;20213;-59
2022/04/11 00:19:17;;;;;;;6.67;3.13;;;;;;;2.73;79.43;98945.28;5111163;28;20197;-59
2022/04/11 00:21:44;;;;;;;5.23;2.63;;;;;;;2.71;80.06;98942.81;5110722;28;20665;-59
2022/04/11 00:24:11;;;;;;;8.60;3.20;;;;;;;2.69;79.65;98939.50;5110697;28;20190;-60
2022/04/11 00:26:37;;;;;;;6.13;2.93;;;;;;;2.79;78.70;98939.75;5110181;28;20188;-60
2022/04/11 00:29:06;;;;;;;5.80;3.10;;;;;;;2.87;76.89;98931.59;5090264;28;20697;-59
2022/04/11 00:31:32;;;;;;;10.00;3.30;;;;;;;2.91;76.98;98927.88;5089845;28;20188;-59
2022/04/11 00:33:59;;;;;;;6.40;2.80;;;;;;;3.03;77.08;98932.28;5086905;28;20211;-59
2022/04/11 00:36:26;;;;;;;5.17;2.83;;;;;;;3.32;74.17;98921.88;5075310;28;20193;-59
2022/04/11 00:38:53;;;;;;;4.97;2.97;;;;;;;3.33;73.04;98923.53;5078626;28;20206;-60
2022/04/11 00:41:20;;;;;;;6.73;3.23;;;;;;;3.47;72.96;98914.94;5088596;28;20193;-59
2022/04/11 00:43:47;;;;;;;6.03;2.97;;;;;;;3.74;72.19;98921.78;5088951;28;20208;-59
2022/04/11 00:46:15;;;;;;;6.03;3.03;;;;;;;3.64;71.61;98924.16;5090175;28;20186;-60
2022/04/11 00:48:42;;;;;;;5.43;3.00;;;;;;;3.92;70.29;98914.63;5090288;28;20202;-59
2022/04/11 00:51:12;;;;;;;5.57;3.10;;;;;;;3.92;69.76;98916.34;5089562;28;20672;-60
2022/04/11 00:53:43;;;;;;;8.23;2.83;;;;;;;3.84;70.84;98911.72;5088342;28;20564;-60
2022/04/11 00:56:12;;;;;;;6.60;3.03;;;;;;;3.77;70.81;98918.19;5089889;28;20234;-59
2022/04/11 00:58:40;;;;;;;5.03;2.83;;;;;;;3.65;72.60;98912.91;5090404;28;20301;-59
2022/04/11 01:01:08;;;;;;;5.67;2.90;;;;;;;3.79;70.64;98911.19;5096692;28;20194;-59
2022/04/11 01:03:37;;;;;;;5.00;2.67;;;;;;;3.75;71.19;98914.88;5073308;28;20206;-59
2022/04/11 01:06:06;;;;;;;4.67;2.70;;;;;;;3.80;69.60;98905.91;5069272;28;20188;-59
2022/04/11 01:08:33;;;;;;;6.50;2.97;;;;;;;3.82;70.02;98903.22;5069812;28;20252;-59
2022/04/11 01:11:01;;;;;;;8.97;3.30;;;;;;;4.01;68.76;98897.66;5067987;28;20192;-59
2022/04/11 01:13:29;;;;;;;4.97;2.80;;;;;;;4.02;69.07;98883.81;5069940;28;20186;-59
2022/04/11 01:15:56;;;;;;;5.70;3.03;;;;;;;4.06;67.33;98892.22;5068225;28;20232;-59
2022/04/11 01:18:23;;;;;;;5.60;3.00;;;;;;;4.15;67.97;98896.75;5068382;28;20215;-59
2022/04/11 01:20:52;;;;;;;4.83;2.80;;;;;;;4.27;67.42;98897.69;5068321;28;20195;-60
2022/04/11 01:23:21;;;;;;;6.27;2.93;;;;;;;4.31;66.15;98896.53;5068481;28;20195;-59
2022/04/11 01:25:53;;;;;;;3.90;2.87;;;;;;;4.26;66.94;98885.69;5068170;28;20273;-59
2022/04/11 01:28:21;;;;;;;3.60;2.53;;;;;;;4.27;67.31;98882.19;5083145;28;20222;-59
2022/04/11 01:30:52;;;;;;;6.47;2.90;;;;;;;4.23;67.79;98876.41;5088171;28;20641;-59
2022/04/11 01:33:21;;;;;;;5.37;2.53;;;;;;;4.14;70.25;98880.41;5088750;28;20202;-59
2022/04/11 01:35:49;;;;;;;5.03;2.40;;;;;;;4.19;68.67;98877.53;5087853;28;20205;-59
2022/04/11 01:38:17;;;;;;;5.47;2.70;;;;;;;4.24;67.70;98882.38;5087108;28;20225;-59
2022/04/11 01:40:52;;;;;;;4.03;2.30;;;;;;;4.18;68.61;98873.31;5086435;28;20239;-59
2022/04/11 01:43:19;;;;;;;3.93;2.40;;;;;;;4.08;71.50;98872.28;5088566;28;20220;-60
2022/04/11 01:45:47;;;;;;;4.20;2.47;;;;;;;4.19;68.34;98877.53;5091156;28;20193;-60
2022/04/11 01:48:15;;;;;;;7.83;2.73;;;;;;;4.24;66.54;98867.69;5092355;28;20612;-59
2022/04/11 01:50:42;;;;;;;5.10;2.60;;;;;;;4.20;67.87;98865.44;5092135;28;20629;-59
2022/04/11 01:53:13;;;;;;;4.43;2.30;;;;;;;4.33;67.05;98868.00;5093634;28;20540;-60
2022/04/11 01:55:42;;;;;;;3.83;2.27;;;;;;;4.29;66.97;98852.69;5091967;28;20693;-59
2022/04/11 01:58:12;;;;;;;6.30;2.70;;;;;;;4.32;67.04;98850.84;5092334;28;20202;-59
2022/04/11 02:00:40;;;;;;;5.47;2.50;;;;;;;4.34;67.58;98836.06;5092093;28;20243;-59
2022/04/11 02:03:09;;;;;;;3.70;2.50;;;;;;;4.33;68.13;98837.81;5092396;28;20190;-59
2022/04/11 02:05:36;;;;;;;6.77;2.80;;;;;;;4.34;67.57;98834.31;5092953;28;20194;-59
2022/04/11 02:08:07;;;;;;;8.67;2.90;;;;;;;4.35;66.46;98823.03;5093578;28;20202;-59
2022/04/11 02:10:36;;;;;;;4.70;2.67;;;;;;;4.41;67.13;98822.63;5091795;28;20660;-59
2022/04/11 02:13:05;;;;;;;4.50;1.93;;;;;;;4.41;67.08;98814.88;5092233;28;20287;-59
2022/04/11 02:15:34;;;;;;;5.07;2.30;;;;;;;4.50;66.37;98810.78;5092771;28;20206;-59
2022/04/11 02:18:01;;;;;;;7.47;2.77;;;;;;;4.62;64.34;98808.28;5092241;28;20249;-60
2022/04/11 02:20:28;;;;;;;3.53;2.60;;;;;;;4.67;64.38;98807.03;5091289;28;20296;-59
2022/04/11 02:22:58;;;;;;;3.07;2.37;;;;;;;4.76;64.29;98807.31;5091802;28;20190;-59
2022/04/11 02:25:27;;;;;;;4.17;2.50;;;;;;;4.78;62.81;98802.84;5091500;28;20549;-59
2022/04/11 02:27:55;;;;;;;5.07;2.43;;;;;;;4.82;63.69;98806.84;5093060;28;20655;-59
2022/04/11 02:30:24;;;;;;;6.77;3.03;;;;;;;4.90;62.32;98806.31;5093170;28;20264;-59
2022/04/11 02:32:54;;;;;;;5.37;2.83;;;;;;;5.02;62.09;98802.88;5091877;28;20197;-59
2022/04/11 02:35:22;;;;;;;6.53;2.50;;;;;;;5.05;62.27;98810.41;5091452;28;20685;-59
2022/04/11 02:37:50;;;;;;;3.67;2.60;;;;;;;5.06;61.47;98812.06;5091433;28;20213;-60
2022/04/11 02:40:17;;;;;;;7.00;2.60;;;;;;;5.12;61.85;98805.59;5091246;28;20231;-59
2022/04/11 02:43:04;;;;;;;6.27;2.33;;;;;;;5.08;62.36;98799.84;5092791;28;20200;-60
2022/04/11 02:45:33;;;;;;;4.90;2.67;;;;;;;5.09;62.57;98798.06;5091237;28;20186;-60
2022/04/11 02:48:02;;;;;;;4.13;2.40;;;;;;;5.01;62.04;98785.69;5091505;28;20210;-60
2022/04/11 02:50:34;;;;;;;4.43;2.63;;;;;;;4.94;63.78;98774.94;5091484;28;20341;-59
2022/04/11 02:53:06;;;;;;;5.70;2.50;;;;;;;4.84;65.16;98768.78;5091297;28;20197;-59
2022/04/11 02:55:33;;;;;;;4.83;2.30;;;;;;;4.73;67.43;98766.97;5090512;28;20694;-60
2022/04/11 02:58:01;;;;;;;3.10;2.10;;;;;;;4.62;67.28;98765.16;5091326;28;20221;-59
2022/04/11 03:00:29;;;;;;;2.93;2.03;;;;;;;4.58;67.83;98761.97;5091014;28;20194;-59
2022/04/11 03:02:58;;;;;;;9.50;3.00;;;;;;;4.51;67.96;98762.53;5091379;28;20243;-59
2022/04/11 03:05:30;;;;;;;7.90;2.50;;;;;;;4.66;64.54;98758.84;5090477;28;20269;-60
2022/04/11 03:07:58;;;;;;;3.70;2.70;;;;;;;4.62;64.75;98754.00;5091119;28;20622;-59
2022/04/11 03:10:26;;;;;;;9.00;2.73;;;;;;;4.57;65.20;98759.50;5090828;28;20229;-59
2022/04/11 03:12:58;;;;;;;6.93;2.43;;;;;;;4.43;66.98;98763.03;5090405;28;20201;-60
2022/04/11 03:15:25;;;;;;;7.00;2.37;;;;;;;4.26;68.81;98752.13;5104861;28;20750;-60
2022/04/11 03:17:52;;;;;;;4.30;2.60;;;;;;;4.15;68.03;98759.84;5084245;28;20231;-60
2022/04/11 03:20:21;;;;;;;3.93;3.07;;;;;;;4.08;68.71;98759.41;5090630;28;20190;-59
2022/04/11 03:22:50;;;;;;;4.43;2.30;;;;;;;3.97;69.21;98754.16;5090814;28;20194;-60
2022/04/11 03:25:17;;;;;;;4.57;3.10;;;;;;;3.89;68.83;98757.28;5091772;28;20174;-60
2022/04/11 03:27:44;;;;;;;6.63;2.63;;;;;;;3.86;69.19;98748.91;5090974;28;20236;-60
2022/04/11 03:30:12;;;;;;;6.07;3.00;;;;;;;3.84;69.20;98751.59;5089876;28;20432;-60
2022/04/11 03:32:40;;;;;;;8.10;2.53;;;;;;;3.82;69.64;98751.69;5090937;28;20254;-59
2022/04/11 03:35:10;;;;;;;6.17;2.93;;;;;;;3.76;69.05;98757.28;5090365;28;20213;-60
2022/04/11 03:37:39;;;;;;;3.73;2.47;;;;;;;3.73;69.43;98760.06;5092034;28;20205;-59
2022/04/11 03:40:17;;;;;;;5.60;2.97;;;;;;;3.73;68.67;98759.25;5090651;28;20198;-60
2022/04/11 03:42:45;;;;;;;5.37;2.63;;;;;;;3.77;69.20;98763.28;5090745;28;20198;-59
2022/04/11 03:45:12;;;;;;;3.43;2.60;;;;;;;3.73;68.57;98767.81;5090391;28;20192;-59
2022/04/11 03:47:42;;;;;;;7.07;2.60;;;;;;;3.71;69.31;98756.75;5090573;28;20269;-59
2022/04/11 03:50:11;;;;;;;6.50;2.37;;;;;;;3.58;69.96;98763.72;5090298;28;20190;-59
2022/04/11 03:52:41;;;;;;;7.03;2.87;;;;;;;3.57;69.38;98770.59;5090586;28;20186;-59
2022/04/11 03:55:10;;;;;;;3.97;2.90;;;;;;;3.49;70.18;98758.22;5090083;28;20197;-59
2022/04/11 03:57:42;;;;;;;6.27;2.70;;;;;;;3.51;71.01;98758.09;5090387;28;20720;-60
2022/04/11 04:00:10;;;;;;;6.03;2.77;;;;;;;3.35;70.27;98753.16;5090270;28;20653;-60
2022/04/11 04:03:06;;;;;;;3.57;3.03;;;;;;;3.29;71.70;98750.97;5090558;28;20213;-60
2022/04/11 04:05:40;;;;;;;6.43;3.20;;;;;;;3.38;70.01;98751.19;5089410;28;20284;-59
2022/04/11 04:08:08;;;;;;;5.47;3.03;;;;;;;3.52;68.06;98750.28;5090179;28;20263;-60
2022/04/11 04:10:35;;;;;;;4.60;2.90;;;;;;;3.47;69.38;98744.59;5090053;28;20723;-60
2022/04/11 04:13:03;;;;;;;4.97;2.83;;;;;;;3.42;70.31;98748.41;5090307;28;20192;-59
2022/04/11 04:15:31;;;;;;;8.47;2.80;;;;;;;3.17;72.06;98732.78;5089773;28;20259;-60
2022/04/11 04:17:58;;;;;;;5.27;2.77;;;;;;;3.04;73.79;98743.09;5090085;28;20233;-59
2022/04/11 04:20:27;;;;;;;5.23;2.37;;;;;;;2.86;73.17;98739.94;5089765;28;20198;-59
2022/04/11 04:22:55;;;;;;;3.83;2.43;;;;;;;2.74;75.63;98733.00;5090095;28;20248;-59
2022/04/11 04:25:23;;;;;;;3.90;2.30;;;;;;;2.60;76.50;98731.31;5089591;28;20219;-59
2022/04/11 04:27:50;;;;;;;4.27;2.80;;;;;;;2.62;74.84;98724.31;5091293;28;20203;-59
2022/04/11 04:30:20;;;;;;;4.70;2.60;;;;;;;2.63;74.69;98734.53;5089698;28;20734;-60
2022/04/11 04:32:48;;;;;;;5.70;3.23;;;;;;;2.78;73.62;98731.88;5089938;28;20675;-60
2022/04/11 04:35:16;;;;;;;4.33;3.07;;;;;;;2.65;74.90;98722.34;5089338;28;20572;-60
2022/04/11 04:37:47;;;;;;;5.33;3.17;;;;;;;2.76;73.99;98728.56;5089832;28;20216;-59
2022/04/11 04:40:14;;;;;;;6.53;2.80;;;;;;;2.68;75.00;98720.50;5089587;28;20222;-59
2022/04/11 04:42:45;;;;;;;4.87;2.53;;;;;;;2.57;75.90;98728.94;5089753;28;20272;-60
2022/04/11 04:45:15;;;;;;;5.83;3.43;;;;;;;2.66;73.39;98730.91;5089291;28;20196;-60
2022/04/11 04:48:04;;;;;;;4.23;2.50;;;;;;;2.72;73.82;98725.38;5089759;28;20699;-59
2022/04/11 04:50:34;;;;;;;5.03;3.10;;;;;;;2.72;72.92;98733.09;5089413;28;20278;-59
2022/04/11 04:53:02;;;;;;;4.27;2.97;;;;;;;2.71;72.95;98726.31;5089732;28;20613;-59
2022/04/11 04:55:29;;;;;;;4.83;3.00;;;;;;;2.81;72.44;98718.78;5089212;28;20181;-60
2022/04/11 04:57:56;;;;;;;6.37;2.70;;;;;;;2.75;72.27;98722.59;5089387;28;20262;-59
2022/04/11 05:00:25;;;;;;;5.13;2.77;;;;;;;2.69;74.01;98717.00;5089345;28;20189;-59
2022/04/11 05:02:52;;;;;;;5.47;2.90;;;;;;;2.68;73.64;98723.91;5089698;28;20350;-60
2022/04/11 05:05:24;;;;;;;5.17;2.63;;;;;;;2.59;74.51;98717.63;5090504;28;20657;-60
2022/04/11 05:07:54;;;;;;;13.93;6.47;;;;;;;2.62;74.10;98717.41;5090733;28;20710;-60
2022/04/11 05:10:26;;;;;;;3.33;2.83;;;;;;;2.66;73.87;98724.00;5089116;28;20243;-59
2022/04/11 05:12:53;;;;;;;42.40;14.07;;;;;;;2.73;73.11;98723.59;5089542;28;20319;-60
2022/04/11 05:15:21;;;;;;;23.00;9.87;;;;;;;2.88;72.71;98719.25;5089012;28;20244;-59
2022/04/11 05:17:54;;;;;;;7.27;4.50;;;;;;;2.91;73.27;98721.63;5093166;28;20208;-60
2022/04/11 05:20:24;;;;;;;8.83;5.70;;;;;;;3.01;71.34;98717.50;5093209;28;20243;-59
2022/04/11 05:22:51;;;;;;;5.57;3.30;;;;;;;2.98;72.19;98727.19;5093547;28;20198;-60
2022/04/11 05:25:19;;;;;;;19.27;13.03;;;;;;;2.96;72.27;98722.16;5093032;28;20387;-59
2022/04/11 05:27:46;;;;;;;11.57;9.10;;;;;;;3.07;72.42;98732.59;5093320;28;20573;-59
2022/04/11 05:30:13;;;;;;;6.80;2.97;;;;;;;3.15;71.39;98726.91;5093102;28;20244;-59
2022/04/11 05:32:40;;;;;;;9.07;5.60;;;;;;;3.24;69.10;98736.63;5093346;28;20196;-60
2022/04/11 05:35:09;;;;;;;17.47;12.23;;;;;;;3.28;70.08;98726.91;5092822;28;20444;-60
2022/04/11 05:37:38;;;;;;;7.17;3.07;;;;;;;3.28;72.10;98732.06;5092948;28;20308;-60
2022/04/11 05:40:09;;;;;;;10.67;7.53;;;;;;;3.31;72.30;98725.91;5092916;28;20198;-60
2022/04/11 05:42:37;;;;;;;13.50;8.03;;;;;;;3.33;70.44;98732.59;5092990;28;20670;-59
2022/04/11 05:45:05;;;;;;;19.80;10.23;;;;;;;3.48;69.50;98735.09;5092723;28;20463;-59
2022/04/11 05:47:31;;;;;;;10.57;6.53;;;;;;;3.61;68.00;98732.53;5092976;28;20211;-59
2022/04/11 05:50:00;;;;;;;11.20;6.40;;;;;;;3.76;66.39;98734.03;5092682;28;20186;-59
2022/04/11 05:52:26;;;;;;;14.20;8.57;;;;;;;3.87;67.07;98728.16;5092922;28;20193;-59
2022/04/11 05:54:55;;;;;;;4.43;2.60;;;;;;;3.83;68.58;98727.53;5092414;28;20715;-59
2022/04/11 05:57:23;;;;;;;9.23;5.57;;;;;;;3.90;67.38;98730.53;5092879;28;20221;-59
2022/04/11 05:59:49;;;;;;;39.13;23.07;;;;;;;3.95;66.50;98728.44;5092485;28;20592;-60
2022/04/11 06:02:17;;;;;;;7.75;5.05;;;;;;;4.08;65.91;98725.03;5093295;28;20422;-58
2022/04/11 06:04:44;;;;;;;6.33;2.83;;;;;;;4.13;67.09;98723.75;5092144;28;20220;-58
2022/04/11 06:07:11;;;;;;;9.20;3.03;;;;;;;4.19;66.17;98719.94;5092536;28;20188;-58
2022/04/11 06:09:39;;;;;;;6.93;3.20;;;;;;;4.25;64.52;98724.63;5092194;28;20634;-58
2022/04/11 06:12:10;;;;;;;5.87;2.70;;;;;;;4.27;65.42;98720.19;5092591;28;20190;-58
2022/04/11 06:14:39;;;;;;;4.87;2.50;;;;;;;4.25;66.70;98729.81;5092134;28;20224;-58
2022/04/11 06:17:06;;;;;;;3.60;2.70;;;;;;;4.31;65.87;98732.91;5092212;28;20308;-58
2022/04/11 06:19:32;;;;;;;5.10;2.90;;;;;;;4.32;66.63;98727.63;5093840;28;20205;-58
2022/04/11 06:22:01;;;;;;;5.83;3.20;;;;;;;4.32;65.40;98734.53;5092369;28;20192;-58
2022/04/11 06:24:28;;;;;;;4.53;2.43;;;;;;;4.39;64.16;98735.75;5091926;28;20241;-58
2022/04/11 06:26:55;;;;;;;2.90;1.90;;;;;;;4.44;65.11;98728.50;5092292;28;20193;-58
2022/04/11 06:29:23;;;;;;;3.53;2.20;;;;;;;4.46;65.81;98734.41;5090903;28;20437;-58
2022/04/11 06:31:50;;;;;;;7.63;2.87;;;;;;;4.50;64.33;98737.59;5091836;28;20194;-58
2022/04/11 06:34:24;;;;;;;4.70;2.77;;;;;;;4.54;64.02;98732.09;5091694;28;20197;-58
2022/04/11 06:36:50;;;;;;;3.63;2.30;;;;;;;4.57;65.44;98729.28;5091961;28;20218;-58
2022/04/11 06:39:17;;;;;;;2.80;1.80;;;;;;;4.62;65.29;98734.16;5092070;28;20259;-58
2022/04/11 06:41:49;;;;;;;3.30;2.20;;;;;;;4.65;64.40;98735.69;5091827;28;20298;-58
2022/04/11 06:44:16;;;;;;;3.60;1.90;;;;;;;4.71;65.87;98727.47;5091402;28;20198;-58
2022/04/11 06:46:52;;;;;;;6.63;2.53;;;;;;;4.86;62.14;98723.78;5091861;28;20196;-57
2022/04/11 06:49:19;;;;;;;2.70;1.70;;;;;;;5.05;62.95;98735.38;5091768;28;20217;-58
2022/04/11 06:51:46;;;;;;;5.37;1.80;;;;;;;5.09;62.17;98725.59;5091559;28;20231;-58
2022/04/11 06:54:12;;;;;;;6.70;5.40;;;;;;;5.22;60.58;98722.94;5092630;28;20186;-58
2022/04/11 06:56:39;;;;;;;2.97;2.13;;;;;;;5.41;58.92;98724.97;5092775;28;20204;-58
2022/04/11 06:59:06;;;;;;;3.27;1.50;;;;;;;5.54;61.11;98722.28;5092975;28;20202;-58
2022/04/11 07:01:32;;;;;;;3.43;2.40;;;;;;;5.62;62.83;98735.47;5092639;28;20680;-58
2022/04/11 07:04:01;;;;;;;4.30;2.87;;;;;;;5.81;61.95;98723.72;5091090;28;20844;-58
2022/04/11 07:06:27;;;;;;;8.23;4.57;;;;;;;5.91;62.61;98724.66;5092947;28;20182;-58
2022/04/11 07:08:54;;;;;;;10.70;6.33;;;;;;;6.00;64.21;98728.28;5092745;28;20206;-58
2022/04/11 07:11:21;;;;;;;9.77;5.20;;;;;;;6.00;63.53;98725.69;5092310;28;20196;-58
2022/04/11 07:13:48;;;;;;;11.20;5.90;;;;;;;5.99;64.25;98731.81;5092973;28;20363;-58
2022/04/11 07:16:14;;;;;;;11.10;5.67;;;;;;;5.96;63.12;98740.66;5092084;28;20191;-58
2022/04/11 07:18:41;;;;;;;10.33;6.37;;;;;;;5.70;64.59;98738.31;5092461;28;20202;-58
2022/04/11 07:21:09;;;;;;;10.47;6.80;;;;;;;5.90;66.21;98747.13;5092296;28;20205;-58
2022/04/11 07:23:36;;;;;;;14.33;5.93;;;;;;;5.90;65.67;98754.09;5092532;28;20182;-58
2022/04/11 07:26:03;;;;;;;10.70;6.20;;;;;;;5.87;66.57;98749.94;5092004;28;20191;-58
2022/04/11 07:28:29;;;;;;;9.27;5.77;;;;;;;5.92;66.26;98757.38;5092242;28;20210;-58
2022/04/11 07:30:56;;;;;;;10.87;6.83;;;;;;;6.02;66.99;98758.38;5092018;28;20205;-58
2022/04/11 07:33:23;;;;;;;11.03;7.07;;;;;;;5.91;68.30;98766.09;5092275;28;20182;-58
2022/04/11 07:35:50;;;;;;;15.23;7.93;;;;;;;5.83;69.82;98766.66;5091915;28;20467;-58
2022/04/11 07:38:18;;;;;;;13.00;7.40;;;;;;;6.01;70.00;98759.31;5091958;28;20215;-58
2022/04/11 07:40:45;;;;;;;10.50;6.77;;;;;;;6.17;67.27;98771.09;5091872;28;20191;-58
2022/04/11 07:43:12;;;;;;;10.27;5.47;;;;;;;6.14;65.20;98766.13;5092338;28;20195;-57
2022/04/11 07:45:39;;;;;;;7.90;5.40;;;;;;;6.21;66.55;98764.72;5091590;28;20190;-58
2022/04/11 07:48:06;;;;;;;9.47;5.83;;;;;;;6.29;65.66;98766.69;5091912;28;20202;-58
2022/04/11 07:50:33;;;;;;;8.00;4.80;;;;;;;6.36;62.19;98770.47;5091705;28;20182;-58
2022/04/11 07:53:00;;;;;;;6.47;3.83;;;;;;;6.43;62.53;98763.84;5091865;28;20195;-58
2022/04/11 07:55:28;;;;;;;11.53;7.10;;;;;;;6.62;62.08;98770.19;5091444;28;20196;-58
2022/04/11 07:57:55;;;;;;;6.67;5.13;;;;;;;6.78;60.45;98773.19;5091631;28;20694;-58
2022/04/11 08:00:23;;;;;;;8.87;4.60;;;;;;;6.91;59.03;98770.44;5091491;28;20189;-58
2022/04/11 08:02:51;;;;;;;8.37;5.20;;;;;;;7.01;59.49;98767.09;5091708;28;20187;-58
2022/04/11 08:05:19;;;;;;;11.60;5.03;;;;;;;7.11;60.02;98765.41;5091357;28;20225;-58
2022/04/11 08:07:46;;;;;;;7.87;5.43;;;;;;;7.16;61.05;98760.66;5091448;28;20559;-58
2022/04/11 08:10:13;;;;;;;22.00;10.07;;;;;;;7.16;58.94;98767.63;5091356;28;20192;-58
2022/04/11 08:12:41;;;;;;;7.83;5.13;;;;;;;7.16;58.50;98765.00;5091626;28;20186;-58
2022/04/11 08:15:10;;;;;;;7.83;5.30;;;;;;;7.25;58.32;98759.06;5091156;28;20183;-58
2022/04/11 08:17:36;;;;;;;12.07;4.93;;;;;;;7.32;58.01;98755.03;5091343;28;20214;-58
2022/04/11 08:20:04;;;;;;;9.03;5.03;;;;;;;7.45;57.73;98752.22;5091065;28;20183;-58
2022/04/11 08:22:31;;;;;;;8.50;5.17;;;;;;;7.53;58.17;98754.19;5091408;28;20178;-58
2022/04/11 08:24:58;;;;;;;6.67;5.20;;;;;;;7.68;60.43;98752.06;5091015;28;20262;-58
2022/04/11 08:27:24;;;;;;;8.27;5.00;;;;;;;7.71;57.71;98753.59;5089835;28;20564;-58
2022/04/11 08:29:52;;;;;;;9.57;5.83;;;;;;;7.77;58.88;98743.50;5090982;28;20194;-58
2022/04/11 08:32:19;;;;;;;8.93;4.90;;;;;;;7.95;58.81;98737.69;5091230;28;20184;-58
2022/04/11 08:34:46;;;;;;;9.70;5.40;;;;;;;8.05;57.94;98741.16;5090710;28;20192;-58
2022/04/11 08:37:13;;;;;;;7.27;5.17;;;;;;;8.05;59.42;98735.97;5090911;28;20637;-59
2022/04/11 08:39:39;;;;;;;9.10;4.70;;;;;;;8.20;58.57;98738.19;5090911;28;20182;-58
2022/04/11 08:42:07;;;;;;;9.97;4.73;;;;;;;8.38;58.70;98734.00;5091560;28;20662;-58
2022/04/11 08:44:34;;;;;;;7.70;4.57;;;;;;;8.45;56.04;98730.88;5090542;28;20202;-58
2022/04/11 08:47:04;;;;;;;5.00;4.13;;;;;;;8.46;57.23;98719.50;5090896;28;20262;-58
2022/04/11 08:49:31;;;;;;;7.13;4.37;;;;;;;8.56;57.40;98722.94;5090843;28;20567;-58
2022/04/11 08:51:58;;;;;;;34.53;13.27;;;;;;;8.62;57.77;98722.41;5086861;28;20227;-57
2022/04/11 08:54:26;;;;;;;6.70;4.53;;;;;;;8.85;55.66;98715.16;5085906;28;20739;-57
2022/04/11 08:56:52;;;;;;;7.27;4.00;;;;;;;8.97;57.58;98709.81;5079275;28;20198;-54
2022/04/11 08:59:19;;;;;;;7.13;3.87;;;;;;;9.01;56.33;98711.16;5085921;28;20214;-57
2022/04/11 09:01:46;;;;;;;5.40;3.57;;;;;;;9.09;57.14;98702.66;5090415;28;20713;-57
2022/04/11 09:04:14;;;;;;;5.87;3.80;;;;;;;9.21;57.32;98701.56;5090427;28;20195;-57
2022/04/11 09:06:40;;;;;;;6.10;2.90;;;;;;;9.34;57.07;98703.03;5090434;28;20188;-57
2022/04/11 09:09:07;;;;;;;7.10;3.57;;;;;;;9.34;56.18;98706.44;5090288;28;20254;-57
2022/04/11 09:11:35;;;;;;;5.63;3.20;;;;;;;9.51;55.72;98693.66;5090036;28;20655;-56
2022/04/11 09:14:04;;;;;;;4.83;3.57;;;;;;;9.61;54.82;98689.22;5089591;28;20188;-56
2022/04/11 09:16:43;;;;;;;9.53;3.47;;;;;;;9.58;54.76;98690.31;5090163;28;20206;-56
2022/04/11 09:19:20;;;;;;;7.63;3.67;;;;;;;9.89;55.25;98695.28;5089043;28;20217;-56
2022/04/11 09:21:48;;;;;;;8.00;3.90;;;;;;;9.90;54.24;98696.91;5083989;28;20190;-56
2022/04/11 09:24:17;;;;;;;4.53;3.07;;;;;;;10.07;53.80;98693.69;5084572;28;20183;-57
2022/04/11 09:26:44;;;;;;;5.77;3.20;;;;;;;9.98;53.15;98691.00;5090357;28;20660;-56
2022/04/11 09:29:10;;;;;;;6.53;3.43;;;;;;;9.98;53.78;98683.16;5090455;28;20205;-56
2022/04/11 09:31:37;;;;;;;6.63;3.20;;;;;;;10.12;53.11;98681.84;5090247;28;20211;-57
2022/04/11 09:34:17;;;;;;;7.43;3.57;;;;;;;10.25;54.11;98691.91;5090034;28;20180;-56
2022/04/11 09:36:48;;;;;;;4.57;3.20;;;;;;;10.40;53.25;98692.28;5090412;28;20188;-55
2022/04/11 09:39:15;;;;;;;6.30;3.10;;;;;;;10.55;53.40;98689.16;5090265;28;20205;-55
2022/04/11 09:41:43;;;;;;;5.80;3.50;;;;;;;10.76;54.84;98684.44;5090139;28;20186;-56
2022/04/11 09:44:21;;;;;;;5.83;3.37;;;;;;;10.90;54.44;98675.25;5089834;28;20197;-55
2022/04/11 09:46:48;;;;;;;5.50;3.00;;;;;;;10.97;53.17;98680.69;5090408;28;20195;-56
2022/04/11 09:49:15;;;;;;;4.53;3.07;;;;;;;11.12;54.33;98677.50;5090403;28;20203;-56
2022/04/11 09:52:05;;;;;;;7.00;3.57;;;;;;;11.23;53.68;98677.25;5082486;28;20555;-56
2022/04/11 09:54:33;;;;;;;5.13;3.13;;;;;;;11.39;52.45;98673.13;5069781;28;20185;-55
2022/04/11 09:57:01;;;;;;;5.70;3.27;;;;;;;11.66;49.95;98672.91;5082440;28;20199;-56
2022/04/11 09:59:28;;;;;;;5.63;3.33;;;;;;;11.70;51.77;98669.97;5090196;28;20216;-56
2022/04/11 10:01:57;;;;;;;6.67;3.33;;;;;;;11.68;51.51;98657.06;5089876;28;20200;-56
2022/04/11 10:04:24;;;;;;;5.07;2.90;;;;;;;11.85;51.67;98665.78;5091432;28;20764;-55
2022/04/11 10:06:51;;;;;;;8.30;3.40;;;;;;;12.04;50.07;98674.38;5093903;28;20277;-57
2022/04/11 10:09:22;;;;;;;8.03;2.30;;;;;;;12.17;47.68;98669.53;5093757;28;20193;-56
2022/04/11 10:11:49;;;;;;;5.30;2.90;;;;;;;12.31;48.16;98668.06;5093017;28;20186;-54
2022/04/11 10:14:23;;;;;;;4.80;2.43;;;;;;;12.43;46.25;98670.38;5093315;28;20185;-53
2022/04/11 10:16:51;;;;;;;5.30;2.50;;;;;;;12.47;46.72;98676.94;5093562;28;20186;-55
2022/04/11 10:19:23;;;;;;;6.83;2.40;;;;;;;12.43;45.76;98675.63;5093323;28;20215;-56
2022/04/11 10:21:52;;;;;;;4.37;2.30;;;;;;;12.50;46.40;98679.22;5092808;28;20182;-55
2022/04/11 10:24:33;;;;;;;4.47;2.20;;;;;;;12.47;47.53;98671.69;5092959;28;20232;-55
2022/04/11 10:27:15;;;;;;;3.13;2.20;;;;;;;12.45;46.74;98669.25;5093321;28;20266;-55
2022/04/11 10:29:42;;;;;;;5.37;2.07;;;;;;;12.57;44.73;98668.94;5092704;28;20187;-55
2022/04/11 10:32:10;;;;;;;5.60;1.90;;;;;;;12.62;44.31;98661.41;5093321;28;20189;-55
2022/04/11 10:34:57;;;;;;;4.20;2.13;;;;;;;12.50;47.29;98660.91;5092893;28;20205;-55
2022/04/11 10:37:27;;;;;;;5.53;2.00;;;;;;;12.78;46.63;98668.44;5093016;28;20207;-56
2022/04/11 10:40:28;;;;;;;2.53;1.80;;;;;;;12.78;45.63;98664.00;5092398;28;20192;-56
2022/04/11 10:43:17;;;;;;;3.73;1.90;;;;;;;12.94;45.71;98657.13;5093106;28;20214;-56
2022/04/11 10:45:46;;;;;;;4.17;1.90;;;;;;;13.05;46.43;98659.41;5092629;28;20198;-56
2022/04/11 10:48:14;;;;;;;4.47;2.17;;;;;;;13.13;44.84;98662.03;5092918;28;20257;-56
2022/04/11 10:50:41;;;;;;;13.37;2.30;;;;;;;13.23;43.86;98663.66;5092279;28;20711;-56
2022/04/11 10:53:10;;;;;;;3.57;2.33;;;;;;;13.13;43.17;98662.03;5093294;28;20190;-56
2022/04/11 10:56:02;;;;;;;4.73;2.43;;;;;;;12.93;45.04;98650.25;5092464;28;20232;-56
2022/04/11 10:58:49;;;;;;;5.30;2.27;;;;;;;12.93;45.26;98637.16;5092541;28;20217;-56
2022/04/11 11:01:56;;;;;;;5.10;2.50;;;;;;;13.03;44.61;98648.28;5092162;28;20213;-56
2022/04/11 11:04:27;;;;;;;2.40;1.83;;;;;;;13.12;43.12;98642.03;5092291;28;20188;-56
2022/04/11 11:07:24;;;;;;;3.53;2.00;;;;;;;13.27;43.70;98636.91;5092653;28;20787;-56
2022/04/11 11:09:56;;;;;;;4.17;2.20;;;;;;;13.36;42.85;98639.50;5091788;28;20178;-56
2022/04/11 11:12:25;;;;;;;3.93;2.40;;;;;;;13.47;42.26;98635.75;5092646;28;20192;-56
2022/04/11 11:14:52;;;;;;;4.73;2.50;;;;;;;13.52;43.01;98628.22;5091764;28;20178;-56
2022/04/11 11:17:19;;;;;;;3.70;2.10;;;;;;;13.52;44.04;98625.59;5108000;28;20214;-56
2022/04/11 11:20:07;;;;;;;5.43;1.93;;;;;;;13.72;41.57;98623.34;5091721;28;20191;-56
2022/04/11 11:23:15;;;;;;;3.30;1.90;;;;;;;13.66;41.92;98617.00;5087902;28;20209;-56
2022/04/11 11:25:42;;;;;;;3.43;1.80;;;;;;;13.83;43.09;98619.53;5091986;28;20231;-56
2022/04/11 11:28:12;;;;;;;3.70;2.30;;;;;;;13.81;40.70;98611.84;5090799;28;20226;-56
2022/04/11 11:30:39;;;;;;;4.90;2.20;;;;;;;13.75;42.27;98607.28;5091475;28;20259;-56
2022/04/11 11:33:08;;;;;;;3.77;1.90;;;;;;;13.87;41.79;98608.53;5092256;28;20559;-56
2022/04/11 11:35:35;;;;;;;3.73;1.57;;;;;;;13.87;39.94;98602.44;5091720;28;20190;-56
2022/04/11 11:38:05;;;;;;;5.37;1.90;;;;;;;13.90;40.88;98599.47;5107388;28;20211;-56
2022/04/11 11:40:32;;;;;;;3.03;1.57;;;;;;;13.98;42.06;98602.06;5091269;28;20184;-56
2022/04/11 11:42:59;;;;;;;7.77;3.10;;;;;;;14.00;41.56;98594.03;5091974;28;20206;-56
2022/04/11 11:45:30;;;;;;;4.43;1.80;;;;;;;13.94;40.71;98589.47;5091567;28;20194;-56
2022/04/11 11:47:56;;;;;;;3.57;1.70;;;;;;;14.02;40.20;98590.22;5091742;28;20298;-56
2022/04/11 11:50:23;;;;;;;4.20;1.53;;;;;;;14.16;40.67;98590.47;5091436;28;20531;-56